sensor_id;sensor_type;location;lat;lon;timestamp;P1;durP1;ratioP1;P2;durP2;ratioP2
40164;SDS011;25882;51.120;17.248;2023-04-15T20:07:00;24.55;;;14.73;;
40164;SDS011;25882;51.120;17.248;2023-04-15T20:09:26;22.90;;;13.98;;
40164;SDS011;25882;51.120;17.248;2023-04-15T20:11:53;23.50;;;14.18;;
40164;SDS011;25882;51.120;17.248;2023-04-15T20:14:19;20.65;;;12.57;;
40164;SDS011;25882;51.120;17.248;2023-04-15T20:16:49;21.63;;;13.30;;
40164;SDS011;25882;51.120;17.248;2023-04-15T20:19:15;22.17;;;13.15;;
40164;SDS011;25882;51.120;17.248;2023-04-15T20:21:42;21.35;;;13.07;;
40164;SDS011;25882;51.120;17.248;2023-04-15T20:24:09;22.73;;;14.40;;
40164;SDS011;25882;51.120;17.248;2023-04-15T20:26:35;20.75;;;13.40;;
40164;SDS011;25882;51.120;17.248;2023-04-15T20:29:02;28.92;;;14.48;;
40164;SDS011;25882;51.120;17.248;2023-04-15T20:31:28;24.00;;;13.15;;
40164;SDS011;25882;51.120;17.248;2023-04-15T20:33:55;20.88;;;12.77;;
40164;SDS011;25882;51.120;17.248;2023-04-15T20:36:22;21.27;;;13.25;;
40164;SDS011;25882;51.120;17.248;2023-04-15T20:38:48;23.25;;;14.88;;
40164;SDS011;25882;51.120;17.248;2023-04-15T20:41:14;25.75;;;15.13;;
40164;SDS011;25882;51.120;17.248;2023-04-15T20:43:41;22.27;;;14.27;;
40164;SDS011;25882;51.120;17.248;2023-04-15T20:46:08;22.35;;;13.27;;
40164;SDS011;25882;51.120;17.248;2023-04-15T20:48:36;21.30;;;13.20;;
40164;SDS011;25882;51.120;17.248;2023-04-15T20:51:03;21.27;;;13.98;;
40164;SDS011;25882;51.120;17.248;2023-04-15T20:53:29;23.48;;;14.77;;
40164;SDS011;25882;51.120;17.248;2023-04-15T20:55:55;24.55;;;14.55;;
40164;SDS011;25882;51.120;17.248;2023-04-15T20:58:21;25.75;;;14.32;;
40164;SDS011;25882;51.120;17.248;2023-04-15T21:00:48;25.38;;;14.48;;
40164;SDS011;25882;51.120;17.248;2023-04-15T21:03:14;24.65;;;14.88;;
40164;SDS011;25882;51.120;17.248;2023-04-15T21:05:40;19.42;;;13.02;;
40164;SDS011;25882;51.120;17.248;2023-04-15T21:08:07;23.75;;;14.48;;
40164;SDS011;25882;51.120;17.248;2023-04-15T21:10:33;28.63;;;14.50;;
40164;SDS011;25882;51.120;17.248;2023-04-15T21:13:00;26.58;;;14.68;;
40164;SDS011;25882;51.120;17.248;2023-04-15T21:15:26;21.70;;;12.13;;
40164;SDS011;25882;51.120;17.248;2023-04-15T21:17:53;21.63;;;12.95;;
40164;SDS011;25882;51.120;17.248;2023-04-15T21:20:20;25.27;;;14.05;;
40164;SDS011;25882;51.120;17.248;2023-04-15T21:22:46;23.83;;;13.88;;
40164;SDS011;25882;51.120;17.248;2023-04-15T21:25:14;20.00;;;11.35;;
40164;SDS011;25882;51.120;17.248;2023-04-15T21:27:40;18.98;;;12.70;;
40164;SDS011;25882;51.120;17.248;2023-04-15T21:30:07;18.30;;;10.77;;
40164;SDS011;25882;51.120;17.248;2023-04-15T21:32:34;16.90;;;11.63;;
40164;SDS011;25882;51.120;17.248;2023-04-15T21:35:00;19.63;;;13.10;;
40164;SDS011;25882;51.120;17.248;2023-04-15T21:37:28;20.00;;;12.65;;
40164;SDS011;25882;51.120;17.248;2023-04-15T21:39:54;19.10;;;11.15;;
40164;SDS011;25882;51.120;17.248;2023-04-15T21:42:22;20.73;;;12.55;;
40164;SDS011;25882;51.120;17.248;2023-04-15T21:44:48;23.05;;;13.65;;
40164;SDS011;25882;51.120;17.248;2023-04-15T21:47:14;24.05;;;14.10;;
40164;SDS011;25882;51.120;17.248;2023-04-15T21:49:40;21.33;;;13.50;;
40164;SDS011;25882;51.120;17.248;2023-04-15T21:52:06;21.58;;;14.07;;
40164;SDS011;25882;51.120;17.248;2023-04-15T21:54:32;28.23;;;17.02;;
40164;SDS011;25882;51.120;17.248;2023-04-15T21:57:01;24.30;;;14.88;;
40164;SDS011;25882;51.120;17.248;2023-04-15T21:59:28;33.33;;;17.80;;
40164;SDS011;25882;51.120;17.248;2023-04-15T22:01:55;32.30;;;17.35;;
40164;SDS011;25882;51.120;17.248;2023-04-15T22:04:20;40.65;;;20.42;;
40164;SDS011;25882;51.120;17.248;2023-04-15T22:06:47;32.85;;;16.27;;
40164;SDS011;25882;51.120;17.248;2023-04-15T22:09:13;27.40;;;15.07;;
40164;SDS011;25882;51.120;17.248;2023-04-15T22:11:39;25.38;;;15.63;;
40164;SDS011;25882;51.120;17.248;2023-04-15T22:14:05;25.45;;;15.27;;
40164;SDS011;25882;51.120;17.248;2023-04-15T22:16:33;25.77;;;15.38;;
40164;SDS011;25882;51.120;17.248;2023-04-15T22:18:59;126.47;;;48.50;;
40164;SDS011;25882;51.120;17.248;2023-04-15T22:21:27;152.05;;;54.53;;
40164;SDS011;25882;51.120;17.248;2023-04-15T22:23:53;194.82;;;72.47;;
40164;SDS011;25882;51.120;17.248;2023-04-15T22:26:19;145.65;;;56.38;;
40164;SDS011;25882;51.120;17.248;2023-04-15T22:28:45;62.25;;;26.77;;
40164;SDS011;25882;51.120;17.248;2023-04-15T22:31:11;49.63;;;25.73;;
40164;SDS011;25882;51.120;17.248;2023-04-15T22:33:40;37.67;;;21.17;;
40164;SDS011;25882;51.120;17.248;2023-04-15T22:36:06;37.13;;;19.48;;
40164;SDS011;25882;51.120;17.248;2023-04-15T22:38:32;34.83;;;17.60;;
40164;SDS011;25882;51.120;17.248;2023-04-15T22:40:58;28.65;;;17.00;;
40164;SDS011;25882;51.120;17.248;2023-04-15T22:43:24;37.15;;;19.73;;
40164;SDS011;25882;51.120;17.248;2023-04-15T22:45:50;34.83;;;18.90;;
40164;SDS011;25882;51.120;17.248;2023-04-15T22:48:17;40.00;;;20.52;;
40164;SDS011;25882;51.120;17.248;2023-04-15T22:50:45;61.60;;;29.27;;
40164;SDS011;25882;51.120;17.248;2023-04-15T22:53:11;61.92;;;28.27;;
40164;SDS011;25882;51.120;17.248;2023-04-15T22:55:37;60.55;;;28.88;;
40164;SDS011;25882;51.120;17.248;2023-04-15T22:58:03;48.08;;;22.88;;
40164;SDS011;25882;51.120;17.248;2023-04-15T23:00:29;40.85;;;19.98;;
40164;SDS011;25882;51.120;17.248;2023-04-15T23:02:55;32.20;;;18.52;;
40164;SDS011;25882;51.120;17.248;2023-04-15T23:05:21;26.20;;;14.90;;
40164;SDS011;25882;51.120;17.248;2023-04-15T23:07:49;22.92;;;13.52;;
40164;SDS011;25882;51.120;17.248;2023-04-15T23:10:15;26.15;;;15.70;;
40164;SDS011;25882;51.120;17.248;2023-04-15T23:12:41;25.92;;;15.63;;
40164;SDS011;25882;51.120;17.248;2023-04-15T23:15:08;22.48;;;14.65;;
40164;SDS011;25882;51.120;17.248;2023-04-15T23:17:34;27.00;;;15.70;;
40164;SDS011;25882;51.120;17.248;2023-04-15T23:20:01;26.17;;;15.85;;
40164;SDS011;25882;51.120;17.248;2023-04-15T23:22:27;31.48;;;19.48;;
40164;SDS011;25882;51.120;17.248;2023-04-15T23:24:55;30.30;;;18.17;;
40164;SDS011;25882;51.120;17.248;2023-04-15T23:27:21;35.85;;;20.73;;
40164;SDS011;25882;51.120;17.248;2023-04-15T23:29:47;33.33;;;21.23;;
40164;SDS011;25882;51.120;17.248;2023-04-15T23:32:13;31.95;;;19.98;;
40164;SDS011;25882;51.120;17.248;2023-04-15T23:34:39;40.75;;;22.40;;
40164;SDS011;25882;51.120;17.248;2023-04-15T23:37:05;53.20;;;26.88;;
40164;SDS011;25882;51.120;17.248;2023-04-15T23:39:31;51.65;;;25.90;;
40164;SDS011;25882;51.120;17.248;2023-04-15T23:41:58;44.97;;;25.48;;
40164;SDS011;25882;51.120;17.248;2023-04-15T23:44:24;43.47;;;24.67;;
40164;SDS011;25882;51.120;17.248;2023-04-15T23:46:50;42.92;;;22.77;;
40164;SDS011;25882;51.120;17.248;2023-04-15T23:49:16;33.17;;;20.52;;
40164;SDS011;25882;51.120;17.248;2023-04-15T23:51:42;36.95;;;22.20;;
40164;SDS011;25882;51.120;17.248;2023-04-15T23:54:09;46.67;;;26.92;;
40164;SDS011;25882;51.120;17.248;2023-04-15T23:56:35;51.88;;;27.10;;
40164;SDS011;25882;51.120;17.248;2023-04-15T23:59:02;80.75;;;37.35;;
